sensor_id;sensor_type;location;lat;lon;timestamp;pressure;altitude;pressure_sealevel;temperature;humidity
59411;BME280;45215;32.610;-115.482;2022-10-16T00:00:39;100857.88;;;21.19;64.01
59411;BME280;45215;32.610;-115.482;2022-10-16T00:03:06;100840.81;;;20.95;58.86
59411;BME280;45215;32.610;-115.482;2022-10-16T00:05:33;100824.63;;;20.41;59.34
59411;BME280;45215;32.610;-115.482;2022-10-16T00:08:03;100830.91;;;20.65;62.55
59411;BME280;45215;32.610;-115.482;2022-10-16T00:10:29;100839.03;;;20.88;63.74
59411;BME280;45215;32.610;-115.482;2022-10-16T00:12:55;100830.81;;;21.04;63.97
59411;BME280;45215;32.610;-115.482;2022-10-16T00:15:21;100824.00;;;21.16;63.88
59411;BME280;45215;32.610;-115.482;2022-10-16T00:17:48;100817.31;;;21.27;63.65
59411;BME280;45215;32.610;-115.482;2022-10-16T00:20:14;100813.66;;;20.51;55.67
59411;BME280;45215;32.610;-115.482;2022-10-16T00:22:40;100830.03;;;20.41;60.74
59411;BME280;45215;32.610;-115.482;2022-10-16T00:25:06;100821.34;;;20.62;62.72
59411;BME280;45215;32.610;-115.482;2022-10-16T00:27:33;100826.91;;;20.84;63.79
59411;BME280;45215;32.610;-115.482;2022-10-16T00:29:59;100828.31;;;21.03;63.85
59411;BME280;45215;32.610;-115.482;2022-10-16T00:32:26;100821.09;;;21.18;63.64
59411;BME280;45215;32.610;-115.482;2022-10-16T00:34:52;100827.97;;;20.52;56.53
59411;BME280;45215;32.610;-115.482;2022-10-16T00:37:20;100845.13;;;20.50;61.19
59411;BME280;45215;32.610;-115.482;2022-10-16T00:39:47;100850.91;;;20.70;63.31
59411;BME280;45215;32.610;-115.482;2022-10-16T00:42:16;100851.94;;;20.92;64.10
59411;BME280;45215;32.610;-115.482;2022-10-16T00:44:54;100860.63;;;21.11;63.40
59411;BME280;45215;32.610;-115.482;2022-10-16T00:47:39;100866.75;;;21.28;63.12
59411;BME280;45215;32.610;-115.482;2022-10-16T00:50:09;100864.31;;;20.56;55.98
59411;BME280;45215;32.610;-115.482;2022-10-16T00:52:43;100874.59;;;20.52;61.22
59411;BME280;45215;32.610;-115.482;2022-10-16T00:55:10;100887.47;;;20.73;62.42
59411;BME280;45215;32.610;-115.482;2022-10-16T00:57:37;100888.03;;;20.91;63.78
59411;BME280;45215;32.610;-115.482;2022-10-16T01:00:05;100881.72;;;21.07;63.74
59411;BME280;45215;32.610;-115.482;2022-10-16T01:02:32;100886.81;;;21.25;63.42
59411;BME280;45215;32.610;-115.482;2022-10-16T01:04:58;100895.81;;;21.41;62.83
59411;BME280;45215;32.610;-115.482;2022-10-16T01:10:13;100915.69;;;21.63;61.73
59411;BME280;45215;32.610;-115.482;2022-10-16T01:13:06;100915.78;;;21.69;61.51
59411;BME280;45215;32.610;-115.482;2022-10-16T01:15:37;100928.84;;;21.80;61.25
59411;BME280;45215;32.610;-115.482;2022-10-16T01:21:02;100947.34;;;21.92;60.51
59411;BME280;45215;32.610;-115.482;2022-10-16T01:23:57;100942.41;;;21.95;60.37
59411;BME280;45215;32.610;-115.482;2022-10-16T01:29:16;100934.88;;;21.91;59.27
59411;BME280;45215;32.610;-115.482;2022-10-16T01:31:48;100935.44;;;22.01;59.76
59411;BME280;45215;32.610;-115.482;2022-10-16T01:34:22;100929.84;;;22.02;59.19
59411;BME280;45215;32.610;-115.482;2022-10-16T01:36:55;100936.75;;;22.05;59.63
59411;BME280;45215;32.610;-115.482;2022-10-16T01:39:25;100937.38;;;22.07;59.47
59411;BME280;45215;32.610;-115.482;2022-10-16T01:42:00;100932.47;;;22.11;59.37
59411;BME280;45215;32.610;-115.482;2022-10-16T01:44:30;100939.38;;;22.13;59.07
59411;BME280;45215;32.610;-115.482;2022-10-16T01:46:57;100934.81;;;22.14;59.43
59411;BME280;45215;32.610;-115.482;2022-10-16T01:49:26;100928.19;;;22.16;59.18
59411;BME280;45215;32.610;-115.482;2022-10-16T01:51:56;100917.75;;;22.13;59.06
59411;BME280;45215;32.610;-115.482;2022-10-16T01:54:27;100919.06;;;22.17;59.42
59411;BME280;45215;32.610;-115.482;2022-10-16T01:56:56;100910.66;;;22.12;58.85
59411;BME280;45215;32.610;-115.482;2022-10-16T01:59:26;100913.56;;;22.11;58.95
59411;BME280;45215;32.610;-115.482;2022-10-16T02:01:56;100923.78;;;22.15;59.12
59411;BME280;45215;32.610;-115.482;2022-10-16T02:04:28;100927.81;;;22.19;59.32
59411;BME280;45215;32.610;-115.482;2022-10-16T02:06:55;100924.91;;;22.21;59.08
59411;BME280;45215;32.610;-115.482;2022-10-16T02:09:21;100922.78;;;22.16;59.25
59411;BME280;45215;32.610;-115.482;2022-10-16T02:11:48;100924.91;;;22.21;59.21
59411;BME280;45215;32.610;-115.482;2022-10-16T02:14:15;100926.25;;;22.25;59.00
59411;BME280;45215;32.610;-115.482;2022-10-16T02:16:44;100932.03;;;22.22;59.11
59411;BME280;45215;32.610;-115.482;2022-10-16T02:19:12;100938.53;;;22.27;59.05
59411;BME280;45215;32.610;-115.482;2022-10-16T02:26:57;100951.47;;;22.32;59.04
59411;BME280;45215;32.610;-115.482;2022-10-16T02:29:27;100959.41;;;22.34;58.86
59411;BME280;45215;32.610;-115.482;2022-10-16T02:32:01;100958.22;;;22.36;59.01
59411;BME280;45215;32.610;-115.482;2022-10-16T02:34:30;100956.34;;;22.37;58.50
59411;BME280;45215;32.610;-115.482;2022-10-16T02:37:01;100954.19;;;22.32;59.02
59411;BME280;45215;32.610;-115.482;2022-10-16T02:39:30;100958.84;;;22.38;58.55
59411;BME280;45215;32.610;-115.482;2022-10-16T02:41:56;100960.53;;;22.39;58.70
59411;BME280;45215;32.610;-115.482;2022-10-16T02:44:23;100962.41;;;22.39;59.04
59411;BME280;45215;32.610;-115.482;2022-10-16T02:46:49;100974.50;;;22.43;59.04
59411;BME280;45215;32.610;-115.482;2022-10-16T02:49:15;100994.94;;;22.45;58.66
59411;BME280;45215;32.610;-115.482;2022-10-16T02:51:41;100995.09;;;22.44;58.59
59411;BME280;45215;32.610;-115.482;2022-10-16T02:54:07;100998.28;;;22.47;58.78
59411;BME280;45215;32.610;-115.482;2022-10-16T02:56:33;100995.75;;;22.46;58.51
59411;BME280;45215;32.610;-115.482;2022-10-16T02:59:00;100991.84;;;22.48;58.63
59411;BME280;45215;32.610;-115.482;2022-10-16T03:01:26;100996.44;;;22.48;58.86
59411;BME280;45215;32.610;-115.482;2022-10-16T03:03:52;101005.19;;;22.50;58.68
59411;BME280;45215;32.610;-115.482;2022-10-16T03:06:18;101006.88;;;22.51;58.43
59411;BME280;45215;32.610;-115.482;2022-10-16T03:08:44;101017.22;;;22.47;58.56
59411;BME280;45215;32.610;-115.482;2022-10-16T03:11:10;101019.53;;;22.50;58.31
59411;BME280;45215;32.610;-115.482;2022-10-16T03:13:37;101026.63;;;22.51;58.71
59411;BME280;45215;32.610;-115.482;2022-10-16T03:16:03;101027.16;;;22.47;58.54
59411;BME280;45215;32.610;-115.482;2022-10-16T03:18:29;101029.78;;;22.55;58.92
59411;BME280;45215;32.610;-115.482;2022-10-16T03:20:56;101030.28;;;22.06;53.56
59411;BME280;45215;32.610;-115.482;2022-10-16T03:23:23;101038.34;;;21.91;59.42
59411;BME280;45215;32.610;-115.482;2022-10-16T03:25:52;101043.47;;;22.01;61.80
59411;BME280;45215;32.610;-115.482;2022-10-16T03:28:19;101036.03;;;22.03;62.51
59411;BME280;45215;32.610;-115.482;2022-10-16T03:30:45;101053.50;;;22.15;62.30
59411;BME280;45215;32.610;-115.482;2022-10-16T03:33:11;101060.16;;;22.27;61.92
59411;BME280;45215;32.610;-115.482;2022-10-16T03:35:37;101063.13;;;22.33;61.33
59411;BME280;45215;32.610;-115.482;2022-10-16T03:38:04;101051.94;;;22.36;60.63
59411;BME280;45215;32.610;-115.482;2022-10-16T03:40:30;101062.03;;;22.42;60.92
59411;BME280;45215;32.610;-115.482;2022-10-16T03:42:58;101059.81;;;22.45;60.19
59411;BME280;45215;32.610;-115.482;2022-10-16T03:45:24;101051.50;;;22.47;60.17
59411;BME280;45215;32.610;-115.482;2022-10-16T03:47:50;101050.28;;;22.49;60.37
59411;BME280;45215;32.610;-115.482;2022-10-16T03:50:17;101047.41;;;22.51;59.83
59411;BME280;45215;32.610;-115.482;2022-10-16T03:52:43;101053.13;;;22.56;59.94
59411;BME280;45215;32.610;-115.482;2022-10-16T03:55:09;101048.81;;;22.62;59.79
59411;BME280;45215;32.610;-115.482;2022-10-16T03:57:35;101039.03;;;22.61;59.55
59411;BME280;45215;32.610;-115.482;2022-10-16T04:00:02;101041.34;;;22.64;59.74
59411;BME280;45215;32.610;-115.482;2022-10-16T04:02:28;101044.06;;;22.64;59.63
59411;BME280;45215;32.610;-115.482;2022-10-16T04:04:54;101057.06;;;22.68;59.63
59411;BME280;45215;32.610;-115.482;2022-10-16T04:07:20;101060.44;;;22.70;59.43
59411;BME280;45215;32.610;-115.482;2022-10-16T04:09:47;101053.31;;;22.69;59.38
59411;BME280;45215;32.610;-115.482;2022-10-16T04:12:13;101062.47;;;22.68;59.23
59411;BME280;45215;32.610;-115.482;2022-10-16T04:14:39;101058.72;;;22.69;59.31
59411;BME280;45215;32.610;-115.482;2022-10-16T04:17:05;101062.94;;;22.72;59.09
59411;BME280;45215;32.610;-115.482;2022-10-16T04:19:31;101074.41;;;22.74;59.00
59411;BME280;45215;32.610;-115.482;2022-10-16T04:21:58;101063.75;;;22.72;58.79
59411;BME280;45215;32.610;-115.482;2022-10-16T04:24:24;101072.91;;;22.71;58.76
59411;BME280;45215;32.610;-115.482;2022-10-16T04:26:50;101074.66;;;22.64;59.02
59411;BME280;45215;32.610;-115.482;2022-10-16T04:29:17;101058.78;;;22.46;59.64
59411;BME280;45215;32.610;-115.482;2022-10-16T04:31:43;101063.94;;;22.56;59.42
59411;BME280;45215;32.610;-115.482;2022-10-16T04:34:09;101067.38;;;22.65;59.41
59411;BME280;45215;32.610;-115.482;2022-10-16T04:36:35;101071.63;;;22.67;59.05
59411;BME280;45215;32.610;-115.482;2022-10-16T04:39:01;101071.69;;;22.74;59.20
59411;BME280;45215;32.610;-115.482;2022-10-16T04:41:27;101065.47;;;22.73;58.58
59411;BME280;45215;32.610;-115.482;2022-10-16T04:43:54;101067.97;;;22.75;58.59
59411;BME280;45215;32.610;-115.482;2022-10-16T04:46:20;101081.69;;;22.73;58.56
59411;BME280;45215;32.610;-115.482;2022-10-16T04:48:46;101069.38;;;22.71;58.29
59411;BME280;45215;32.610;-115.482;2022-10-16T04:51:12;101074.13;;;22.69;58.60
59411;BME280;45215;32.610;-115.482;2022-10-16T04:53:38;101081.41;;;22.68;58.46
59411;BME280;45215;32.610;-115.482;2022-10-16T04:56:05;101076.13;;;22.67;58.50
59411;BME280;45215;32.610;-115.482;2022-10-16T04:58:31;101081.41;;;22.68;58.46
59411;BME280;45215;32.610;-115.482;2022-10-16T05:00:57;101074.47;;;22.66;58.47
59411;BME280;45215;32.610;-115.482;2022-10-16T05:03:23;101075.28;;;22.66;58.19
59411;BME280;45215;32.610;-115.482;2022-10-16T05:05:49;101065.88;;;22.62;58.35
59411;BME280;45215;32.610;-115.482;2022-10-16T05:08:16;101075.28;;;22.66;58.37
59411;BME280;45215;32.610;-115.482;2022-10-16T05:10:43;101071.97;;;22.64;58.74
59411;BME280;45215;32.610;-115.482;2022-10-16T05:13:10;101076.13;;;22.67;58.28
59411;BME280;45215;32.610;-115.482;2022-10-16T05:15:37;101073.63;;;22.65;58.32
59411;BME280;45215;32.610;-115.482;2022-10-16T05:18:03;101066.56;;;22.64;58.54
59411;BME280;45215;32.610;-115.482;2022-10-16T05:20:30;101079.41;;;22.62;58.43
59411;BME280;45215;32.610;-115.482;2022-10-16T05:22:56;101067.25;;;22.58;57.97
59411;BME280;45215;32.610;-115.482;2022-10-16T05:25:22;101072.66;;;22.58;58.03
59411;BME280;45215;32.610;-115.482;2022-10-16T05:27:49;101073.03;;;22.55;57.87
59411;BME280;45215;32.610;-115.482;2022-10-16T05:30:16;101074.44;;;22.51;57.98
59411;BME280;45215;32.610;-115.482;2022-10-16T05:32:47;101083.22;;;22.53;57.77
59411;BME280;45215;32.610;-115.482;2022-10-16T05:35:13;101076.78;;;22.54;57.55
59411;BME280;45215;32.610;-115.482;2022-10-16T05:37:39;101077.16;;;22.51;57.69
59411;BME280;45215;32.610;-115.482;2022-10-16T05:40:09;101081.91;;;22.49;57.34
59411;BME280;45215;32.610;-115.482;2022-10-16T05:42:36;101080.22;;;22.48;57.66
59411;BME280;45215;32.610;-115.482;2022-10-16T05:45:04;101074.34;;;22.44;57.34
59411;BME280;45215;32.610;-115.482;2022-10-16T05:47:31;101085.81;;;22.46;57.31
59411;BME280;45215;32.610;-115.482;2022-10-16T05:49:57;101084.13;;;22.45;57.36
59411;BME280;45215;32.610;-115.482;2022-10-16T05:52:23;101092.41;;;22.44;57.56
59411;BME280;45215;32.610;-115.482;2022-10-16T05:54:49;101091.78;;;22.42;57.27
59411;BME280;45215;32.610;-115.482;2022-10-16T05:57:15;101089.06;;;22.42;57.07
59411;BME280;45215;32.610;-115.482;2022-10-16T05:59:42;101085.72;;;22.40;57.31
59411;BME280;45215;32.610;-115.482;2022-10-16T06:02:12;101089.63;;;22.37;57.26
59411;BME280;45215;32.610;-115.482;2022-10-16T06:04:39;101087.75;;;22.38;57.17
59411;BME280;45215;32.610;-115.482;2022-10-16T06:07:05;101092.16;;;22.39;57.24
59411;BME280;45215;32.610;-115.482;2022-10-16T06:09:31;101088.59;;;22.38;57.06
59411;BME280;45215;32.610;-115.482;2022-10-16T06:11:57;101098.56;;;22.38;57.10
59411;BME280;45215;32.610;-115.482;2022-10-16T06:14:24;101099.22;;;22.40;57.07
59411;BME280;45215;32.610;-115.482;2022-10-16T06:16:50;101091.84;;;22.34;56.97
59411;BME280;45215;32.610;-115.482;2022-10-16T06:19:16;101101.25;;;22.38;57.00
59411;BME280;45215;32.610;-115.482;2022-10-16T06:21:43;101092.84;;;22.33;56.62
59411;BME280;45215;32.610;-115.482;2022-10-16T06:24:10;101101.25;;;22.38;56.75
59411;BME280;45215;32.610;-115.482;2022-10-16T06:26:37;101101.25;;;22.38;56.49
59411;BME280;45215;32.610;-115.482;2022-10-16T06:29:04;101105.66;;;22.39;56.46
59411;BME280;45215;32.610;-115.482;2022-10-16T06:31:31;101092.31;;;22.37;56.79
59411;BME280;45215;32.610;-115.482;2022-10-16T06:33:59;101089.78;;;22.36;56.58
59411;BME280;45215;32.610;-115.482;2022-10-16T06:36:26;101087.75;;;22.38;56.51
59411;BME280;45215;32.610;-115.482;2022-10-16T06:38:52;101079.34;;;22.33;56.43
59411;BME280;45215;32.610;-115.482;2022-10-16T06:41:20;101084.38;;;22.36;56.65
59411;BME280;45215;32.610;-115.482;2022-10-16T06:43:47;101084.88;;;22.39;56.34
59411;BME280;45215;32.610;-115.482;2022-10-16T06:46:16;101076.75;;;22.39;56.23
59411;BME280;45215;32.610;-115.482;2022-10-16T06:48:42;101083.19;;;22.38;56.54
59411;BME280;45215;32.610;-115.482;2022-10-16T06:51:11;101084.88;;;22.39;56.34
59411;BME280;45215;32.610;-115.482;2022-10-16T06:53:40;101079.16;;;22.34;56.33
59411;BME280;45215;32.610;-115.482;2022-10-16T06:56:18;101091.94;;;22.40;56.15
59411;BME280;45215;32.610;-115.482;2022-10-16T06:58:44;101090.28;;;22.39;56.14
59411;BME280;45215;32.610;-115.482;2022-10-16T07:01:11;101092.16;;;22.39;55.89
59411;BME280;45215;32.610;-115.482;2022-10-16T07:03:39;101094.84;;;22.39;56.11
59411;BME280;45215;32.610;-115.482;2022-10-16T07:06:07;101103.13;;;22.37;56.21
59411;BME280;45215;32.610;-115.482;2022-10-16T07:08:34;101093.53;;;22.35;56.00
59411;BME280;45215;32.610;-115.482;2022-10-16T07:11:03;101086.44;;;22.34;56.13
59411;BME280;45215;32.610;-115.482;2022-10-16T07:13:29;101081.03;;;22.34;56.25
59411;BME280;45215;32.610;-115.482;2022-10-16T07:15:55;101088.13;;;22.35;56.27
59411;BME280;45215;32.610;-115.482;2022-10-16T07:18:21;101090.81;;;22.35;55.86
59411;BME280;45215;32.610;-115.482;2022-10-16T07:20:52;101084.75;;;22.33;56.16
59411;BME280;45215;32.610;-115.482;2022-10-16T07:23:18;101078.50;;;22.32;55.83
59411;BME280;45215;32.610;-115.482;2022-10-16T07:25:44;101076.00;;;22.31;56.20
59411;BME280;45215;32.610;-115.482;2022-10-16T07:28:10;101076.84;;;22.31;56.00
59411;BME280;45215;32.610;-115.482;2022-10-16T07:30:36;101080.38;;;22.32;55.96
59411;BME280;45215;32.610;-115.482;2022-10-16T07:33:03;101078.88;;;22.29;56.13
59411;BME280;45215;32.610;-115.482;2022-10-16T07:35:29;101086.16;;;22.28;56.12
59411;BME280;45215;32.610;-115.482;2022-10-16T07:37:55;101083.63;;;22.27;55.57
59411;BME280;45215;32.610;-115.482;2022-10-16T07:40:21;101071.13;;;22.26;55.91
59411;BME280;45215;32.610;-115.482;2022-10-16T07:42:47;101077.38;;;22.26;56.01
59411;BME280;45215;32.610;-115.482;2022-10-16T07:45:13;101077.38;;;22.26;55.57
59411;BME280;45215;32.610;-115.482;2022-10-16T07:47:39;101075.50;;;22.27;55.77
59411;BME280;45215;32.610;-115.482;2022-10-16T07:50:06;101068.81;;;22.23;55.84
59411;BME280;45215;32.610;-115.482;2022-10-16T07:52:32;101066.94;;;22.23;55.74
59411;BME280;45215;32.610;-115.482;2022-10-16T07:54:58;101067.97;;;22.22;55.59
59411;BME280;45215;32.610;-115.482;2022-10-16T07:57:24;101081.13;;;22.25;55.92
59411;BME280;45215;32.610;-115.482;2022-10-16T07:59:50;101068.97;;;22.21;55.47
59411;BME280;45215;32.610;-115.482;2022-10-16T08:02:16;101071.50;;;22.23;55.88
59411;BME280;45215;32.610;-115.482;2022-10-16T08:04:43;101075.41;;;22.20;55.38
59411;BME280;45215;32.610;-115.482;2022-10-16T08:07:09;101073.53;;;22.21;55.39
59411;BME280;45215;32.610;-115.482;2022-10-16T08:09:35;101079.97;;;22.20;55.75
59411;BME280;45215;32.610;-115.482;2022-10-16T08:12:01;101077.06;;;22.21;55.77
59411;BME280;45215;32.610;-115.482;2022-10-16T08:14:28;101074.75;;;22.18;55.75
59411;BME280;45215;32.610;-115.482;2022-10-16T08:16:54;101070.38;;;22.17;55.31
59411;BME280;45215;32.610;-115.482;2022-10-16T08:19:20;101084.34;;;22.21;55.66
59411;BME280;45215;32.610;-115.482;2022-10-16T08:21:49;101081.84;;;22.19;55.42
59411;BME280;45215;32.610;-115.482;2022-10-16T08:24:15;101076.44;;;22.19;55.72
59411;BME280;45215;32.610;-115.482;2022-10-16T08:26:42;101082.00;;;22.18;55.54
59411;BME280;45215;32.610;-115.482;2022-10-16T08:29:08;101080.16;;;22.18;55.61
59411;BME280;45215;32.610;-115.482;2022-10-16T08:31:34;101086.59;;;22.17;55.81
59411;BME280;45215;32.610;-115.482;2022-10-16T08:34:00;101082.22;;;22.16;55.44
59411;BME280;45215;32.610;-115.482;2022-10-16T08:36:26;101083.88;;;22.17;55.26
59411;BME280;45215;32.610;-115.482;2022-10-16T08:38:52;101081.19;;;22.17;55.44
59411;BME280;45215;32.610;-115.482;2022-10-16T08:41:53;101090.94;;;22.18;55.73
59411;BME280;45215;32.610;-115.482;2022-10-16T08:49:27;101088.97;;;22.12;55.52
59411;BME280;45215;32.610;-115.482;2022-10-16T08:51:55;101079.22;;;22.11;55.32
59411;BME280;45215;32.610;-115.482;2022-10-16T08:57:08;101084.25;;;22.14;55.36
59411;BME280;45215;32.610;-115.482;2022-10-16T08:59:35;101081.53;;;22.14;55.44
59411;BME280;45215;32.610;-115.482;2022-10-16T09:02:01;101080.72;;;22.14;55.59
59411;BME280;45215;32.610;-115.482;2022-10-16T09:15:29;101090.47;;;22.15;55.10
59411;BME280;45215;32.610;-115.482;2022-10-16T09:23:26;101086.94;;;22.14;55.38
59411;BME280;45215;32.610;-115.482;2022-10-16T09:25:54;101088.63;;;22.15;55.63
59411;BME280;45215;32.610;-115.482;2022-10-16T09:28:21;101091.53;;;22.14;55.44
59411;BME280;45215;32.610;-115.482;2022-10-16T09:30:48;101085.66;;;22.10;55.23
59411;BME280;45215;32.610;-115.482;2022-10-16T09:33:17;101087.13;;;22.13;55.16
59411;BME280;45215;32.610;-115.482;2022-10-16T09:35:51;101086.94;;;22.14;55.32
59411;BME280;45215;32.610;-115.482;2022-10-16T09:38:27;101093.38;;;22.13;55.24
59411;BME280;45215;32.610;-115.482;2022-10-16T09:40:55;101093.56;;;22.12;55.32
59411;BME280;45215;32.610;-115.482;2022-10-16T09:46:02;101089.81;;;22.13;55.53
59411;BME280;45215;32.610;-115.482;2022-10-16T09:48:38;101088.97;;;22.12;55.58
59411;BME280;45215;32.610;-115.482;2022-10-16T09:51:23;101089.81;;;22.13;55.24
59411;BME280;45215;32.610;-115.482;2022-10-16T09:53:55;101093.75;;;22.10;55.39
59411;BME280;45215;32.610;-115.482;2022-10-16T09:56:27;101101.66;;;22.12;55.71
59411;BME280;45215;32.610;-115.482;2022-10-16T09:58:55;101105.41;;;22.11;55.43
59411;BME280;45215;32.610;-115.482;2022-10-16T10:01:26;101109.28;;;22.08;55.18
59411;BME280;45215;32.610;-115.482;2022-10-16T10:03:57;101105.94;;;22.06;55.34
59411;BME280;45215;32.610;-115.482;2022-10-16T10:06:33;101092.09;;;22.01;55.55
59411;BME280;45215;32.610;-115.482;2022-10-16T10:12:00;101114.69;;;22.08;55.52
59411;BME280;45215;32.610;-115.482;2022-10-16T10:14:46;101107.97;;;22.04;55.22
59411;BME280;45215;32.610;-115.482;2022-10-16T10:17:20;101114.03;;;22.06;55.53
59411;BME280;45215;32.610;-115.482;2022-10-16T10:19:53;101122.13;;;22.06;55.41
59411;BME280;45215;32.610;-115.482;2022-10-16T10:22:43;101123.16;;;22.05;55.07
59411;BME280;45215;32.610;-115.482;2022-10-16T10:25:19;101128.06;;;22.01;55.41
59411;BME280;45215;32.610;-115.482;2022-10-16T10:36:12;101133.13;;;22.04;55.21
59411;BME280;45215;32.610;-115.482;2022-10-16T11:06:36;101128.25;;;22.00;54.88
59411;BME280;45215;32.610;-115.482;2022-10-16T11:09:22;101128.25;;;22.00;55.13
59411;BME280;45215;32.610;-115.482;2022-10-16T11:11:55;101129.28;;;21.99;54.86
59411;BME280;45215;32.610;-115.482;2022-10-16T11:17:23;101119.50;;;21.98;55.08
59411;BME280;45215;32.610;-115.482;2022-10-16T11:19:58;101122.19;;;21.98;54.72
59411;BME280;45215;32.610;-115.482;2022-10-16T11:22:56;101120.53;;;21.97;54.57
59411;BME280;45215;32.610;-115.482;2022-10-16T11:25:30;101114.66;;;21.93;54.89
59411;BME280;45215;32.610;-115.482;2022-10-16T11:28:11;101128.63;;;21.97;54.73
59411;BME280;45215;32.610;-115.482;2022-10-16T11:30:51;101132.31;;;21.96;55.04
59411;BME280;45215;32.610;-115.482;2022-10-16T11:33:22;101130.50;;;21.96;54.74
59411;BME280;45215;32.610;-115.482;2022-10-16T11:36:08;101125.63;;;21.92;54.72
59411;BME280;45215;32.610;-115.482;2022-10-16T11:39:09;101131.00;;;21.92;54.68
59411;BME280;45215;32.610;-115.482;2022-10-16T11:47:16;101142.97;;;21.97;54.59
59411;BME280;45215;32.610;-115.482;2022-10-16T11:49:46;101134.38;;;21.94;54.66
59411;BME280;45215;32.610;-115.482;2022-10-16T11:52:39;101140.63;;;21.94;54.83
59411;BME280;45215;32.610;-115.482;2022-10-16T11:55:14;101142.97;;;21.97;54.77
59411;BME280;45215;32.610;-115.482;2022-10-16T11:57:54;101150.22;;;21.97;54.51
59411;BME280;45215;32.610;-115.482;2022-10-16T12:00:24;101156.31;;;21.99;54.52
59411;BME280;45215;32.610;-115.482;2022-10-16T12:08:22;101163.91;;;21.95;54.60
59411;BME280;45215;32.610;-115.482;2022-10-16T12:10:48;101170.81;;;21.98;54.41
59411;BME280;45215;32.610;-115.482;2022-10-16T12:18:39;101186.03;;;21.99;54.31
59411;BME280;45215;32.610;-115.482;2022-10-16T12:21:06;101175.53;;;21.96;54.52
59411;BME280;45215;32.610;-115.482;2022-10-16T12:23:37;101182.66;;;21.97;54.33
59411;BME280;45215;32.610;-115.482;2022-10-16T12:26:04;101187.22;;;21.96;54.52
59411;BME280;45215;32.610;-115.482;2022-10-16T12:28:34;101184.19;;;21.91;54.53
59411;BME280;45215;32.610;-115.482;2022-10-16T12:31:04;101194.44;;;21.96;54.47
59411;BME280;45215;32.610;-115.482;2022-10-16T12:33:37;101195.16;;;21.90;54.56
59411;BME280;45215;32.610;-115.482;2022-10-16T12:36:26;101204.63;;;21.94;54.38
59411;BME280;45215;32.610;-115.482;2022-10-16T12:38:54;101208.66;;;21.90;54.53
59411;BME280;45215;32.610;-115.482;2022-10-16T12:41:32;101211.03;;;21.93;54.24
59411;BME280;45215;32.610;-115.482;2022-10-16T12:44:00;101207.69;;;21.91;54.25
59411;BME280;45215;32.610;-115.482;2022-10-16T12:51:41;101214.44;;;21.87;54.51
59411;BME280;45215;32.610;-115.482;2022-10-16T12:54:20;101217.13;;;21.87;54.44
59411;BME280;45215;32.610;-115.482;2022-10-16T13:19:16;101256.78;;;21.86;54.61
59411;BME280;45215;32.610;-115.482;2022-10-16T13:22:20;101252.56;;;21.83;54.54
59411;BME280;45215;32.610;-115.482;2022-10-16T13:25:43;101257.47;;;21.80;54.31
59411;BME280;45215;32.610;-115.482;2022-10-16T13:28:01;101280.41;;;21.84;54.25
59411;BME280;45215;32.610;-115.482;2022-10-16T13:30:36;101286.00;;;21.82;54.23
59411;BME280;45215;32.610;-115.482;2022-10-16T13:35:50;101287.88;;;21.82;54.21
59411;BME280;45215;32.610;-115.482;2022-10-16T13:38:21;101284.13;;;21.83;54.17
59411;BME280;45215;32.610;-115.482;2022-10-16T13:41:05;101287.00;;;21.81;54.31
59411;BME280;45215;32.610;-115.482;2022-10-16T13:46:03;101293.44;;;21.80;54.39
59411;BME280;45215;32.610;-115.482;2022-10-16T13:48:31;101292.41;;;21.81;54.28
59411;BME280;45215;32.610;-115.482;2022-10-16T13:51:03;101294.25;;;21.81;54.59
59411;BME280;45215;32.610;-115.482;2022-10-16T13:53:32;101290.72;;;21.80;54.41
59411;BME280;45215;32.610;-115.482;2022-10-16T13:55:58;101296.13;;;21.80;54.20
59411;BME280;45215;32.610;-115.482;2022-10-16T13:58:26;101308.78;;;21.80;54.19
59411;BME280;45215;32.610;-115.482;2022-10-16T14:01:00;101308.31;;;21.76;54.13
59411;BME280;45215;32.610;-115.482;2022-10-16T14:03:28;101321.47;;;21.79;54.24
59411;BME280;45215;32.610;-115.482;2022-10-16T14:05:59;101323.50;;;21.77;54.05
59411;BME280;45215;32.610;-115.482;2022-10-16T14:08:27;101319.75;;;21.78;54.42
59411;BME280;45215;32.610;-115.482;2022-10-16T14:10:57;101308.66;;;21.73;54.28
59411;BME280;45215;32.610;-115.482;2022-10-16T14:13:37;101323.66;;;21.76;54.50
59411;BME280;45215;32.610;-115.482;2022-10-16T14:16:09;101305.28;;;21.71;54.48
59411;BME280;45215;32.610;-115.482;2022-10-16T14:18:38;101320.09;;;21.75;54.67
59411;BME280;45215;32.610;-115.482;2022-10-16T14:21:07;101317.41;;;21.75;54.42
59411;BME280;45215;32.610;-115.482;2022-10-16T14:23:38;101322.16;;;21.73;54.48
59411;BME280;45215;32.610;-115.482;2022-10-16T14:28:39;101344.06;;;21.78;54.68
59411;BME280;45215;32.610;-115.482;2022-10-16T14:31:33;101347.78;;;21.77;54.65
59411;BME280;45215;32.610;-115.482;2022-10-16T14:34:00;101344.94;;;21.79;54.19
59411;BME280;45215;32.610;-115.482;2022-10-16T14:36:27;101349.47;;;21.78;54.03
59411;BME280;45215;32.610;-115.482;2022-10-16T14:38:59;101361.97;;;21.79;54.32
59411;BME280;45215;32.610;-115.482;2022-10-16T14:41:35;101371.06;;;21.78;54.46
59411;BME280;45215;32.610;-115.482;2022-10-16T14:44:09;101365.84;;;21.77;54.15
59411;BME280;45215;32.610;-115.482;2022-10-16T14:46:38;101359.28;;;21.71;54.38